Time;durP1;ratioP1;P1;durP2;ratioP2;P2;SDS_P1;SDS_P2;PMS_P1;PMS_P2;Temp;Humidity;BMP_temperature;BMP_pressure;BME280_temperature;BME280_humidity;BME280_pressure;Samples;Min_cycle;Max_cycle;Signal;HPM_P1;HPM_P2
2022/04/02 00:01:27;;;;;;;7.32;2.88;;;2.50;70.20;;;;;;4882613;29;20053;-84
2022/04/02 00:03:54;;;;;;;5.93;2.90;;;2.50;70.20;;;;;;4896742;29;20048;-85
2022/04/02 00:06:21;;;;;;;5.28;2.88;;;2.50;70.20;;;;;;4888858;29;20049;-84
2022/04/02 00:08:48;;;;;;;5.82;2.50;;;2.50;70.20;;;;;;4886929;29;20045;-84
2022/04/02 00:11:15;;;;;;;7.00;2.58;;;2.50;70.20;;;;;;4885655;29;20075;-84
2022/04/02 00:13:42;;;;;;;5.85;2.90;;;2.50;70.20;;;;;;4882332;29;20056;-84
2022/04/02 00:16:09;;;;;;;6.18;2.75;;;2.50;70.20;;;;;;4884392;29;20132;-85
2022/04/02 00:18:36;;;;;;;6.75;2.95;;;2.50;70.20;;;;;;4886385;29;20574;-85
2022/04/02 00:21:03;;;;;;;6.53;3.08;;;2.40;70.20;;;;;;4886738;29;20469;-84
2022/04/02 00:23:35;;;;;;;5.60;2.67;;;2.40;70.20;;;;;;4886519;29;20581;-84
2022/04/02 00:26:04;;;;;;;8.35;2.83;;;2.40;70.20;;;;;;4884073;29;20044;-84
2022/04/02 00:28:36;;;;;;;6.32;2.70;;;2.40;70.30;;;;;;4882036;29;20919;-84
2022/04/02 00:31:04;;;;;;;5.72;2.65;;;2.40;70.30;;;;;;4882947;29;20416;-86
2022/04/02 00:33:32;;;;;;;8.70;2.95;;;2.30;70.30;;;;;;4886060;29;20071;-86
2022/04/02 00:35:58;;;;;;;5.82;2.92;;;2.40;70.30;;;;;;4885308;29;20049;-86
2022/04/02 00:38:26;;;;;;;6.70;3.05;;;2.40;70.40;;;;;;4886395;29;20574;-85
2022/04/02 00:40:53;;;;;;;11.57;2.97;;;2.30;70.40;;;;;;4882501;29;20075;-84
2022/04/02 00:43:28;;;;;;;8.93;3.22;;;2.30;70.40;;;;;;4882613;29;20056;-84
2022/04/02 00:45:58;;;;;;;5.72;2.80;;;2.30;70.50;;;;;;4896305;29;20566;-86
2022/04/02 00:48:27;;;;;;;7.40;2.97;;;2.30;70.50;;;;;;4888977;29;20506;-84
2022/04/02 00:50:56;;;;;;;8.60;3.40;;;2.30;70.50;;;;;;4886268;29;20049;-86
2022/04/02 00:53:34;;;;;;;6.20;2.75;;;2.20;70.50;;;;;;4886152;29;20104;-85
2022/04/02 00:56:02;;;;;;;7.05;2.90;;;2.20;70.60;;;;;;4883452;29;20044;-85
2022/04/02 00:58:30;;;;;;;6.40;3.03;;;2.20;70.60;;;;;;4881728;29;20104;-84
2022/04/02 01:00:57;;;;;;;5.97;3.15;;;2.20;70.70;;;;;;4884937;29;20049;-85
2022/04/02 01:03:24;;;;;;;5.80;2.70;;;2.10;70.70;;;;;;4893949;29;20129;-84
2022/04/02 01:05:51;;;;;;;7.03;3.33;;;2.10;70.70;;;;;;4893247;29;20049;-84
2022/04/02 01:08:18;;;;;;;6.80;3.25;;;2.10;70.70;;;;;;4885433;29;20056;-85
2022/04/02 01:10:45;;;;;;;5.30;3.00;;;2.10;70.70;;;;;;4881379;29;20060;-85
2022/04/02 01:13:14;;;;;;;6.93;3.08;;;2.10;70.80;;;;;;4882043;29;20057;-84
2022/04/02 01:15:42;;;;;;;8.35;3.33;;;2.10;70.80;;;;;;4885614;29;20091;-84
2022/04/02 01:18:09;;;;;;;6.97;3.10;;;2.10;70.80;;;;;;4886076;29;20135;-84
2022/04/02 01:20:36;;;;;;;5.38;3.08;;;2.10;70.80;;;;;;4885907;29;20056;-84
2022/04/02 01:23:03;;;;;;;9.65;3.20;;;2.10;70.90;;;;;;4883144;29;20052;-84
2022/04/02 01:25:32;;;;;;;5.40;2.70;;;2.00;70.90;;;;;;4881626;29;20057;-84
2022/04/02 01:28:00;;;;;;;7.97;3.15;;;2.00;70.90;;;;;;4883541;29;20064;-84
2022/04/02 01:30:28;;;;;;;7.82;3.13;;;2.00;70.90;;;;;;4885553;29;20515;-83
2022/04/02 01:32:56;;;;;;;6.78;3.13;;;2.00;71.00;;;;;;4885880;29;20109;-82
2022/04/02 01:35:23;;;;;;;6.43;3.30;;;2.00;71.00;;;;;;4885835;29;20048;-84
2022/04/02 01:37:50;;;;;;;6.82;3.05;;;2.00;71.00;;;;;;4881613;29;20113;-84
2022/04/02 01:40:18;;;;;;;5.95;3.25;;;2.00;71.00;;;;;;4892981;29;20155;-83
2022/04/02 01:42:46;;;;;;;5.28;2.97;;;1.90;71.00;;;;;;4888841;29;20049;-84
2022/04/02 01:45:14;;;;;;;8.02;3.40;;;2.00;71.10;;;;;;4889058;29;20049;-84
2022/04/02 01:47:41;;;;;;;5.88;3.20;;;2.00;71.10;;;;;;4889281;29;20502;-84
2022/04/02 01:50:10;;;;;;;8.07;3.35;;;1.90;71.10;;;;;;4887428;29;20532;-83
2022/04/02 01:52:38;;;;;;;5.85;3.00;;;1.90;71.10;;;;;;4884908;29;20057;-83
2022/04/02 01:55:05;;;;;;;7.55;3.25;;;1.90;71.10;;;;;;4887270;29;20045;-83
2022/04/02 01:57:32;;;;;;;5.32;3.38;;;1.90;71.20;;;;;;4888138;29;20068;-83
2022/04/02 01:59:59;;;;;;;6.88;3.20;;;1.90;71.20;;;;;;4888871;29;20742;-83
2022/04/02 02:02:26;;;;;;;5.88;3.47;;;1.90;71.20;;;;;;4888935;29;20112;-83
2022/04/02 02:04:53;;;;;;;7.13;3.20;;;1.90;71.20;;;;;;4885193;29;20127;-83
2022/04/02 02:07:20;;;;;;;8.23;4.10;;;1.90;71.20;;;;;;4885310;29;20053;-83
2022/04/02 02:09:47;;;;;;;8.07;3.65;;;1.90;71.20;;;;;;4899311;29;20048;-83
2022/04/02 02:12:15;;;;;;;8.38;3.15;;;1.90;71.30;;;;;;4892931;29;20060;-82
2022/04/02 02:14:42;;;;;;;11.88;3.60;;;1.90;71.30;;;;;;4888556;29;20049;-82
2022/04/02 02:17:09;;;;;;;7.60;3.30;;;1.90;71.30;;;;;;4887054;29;20049;-82
2022/04/02 02:19:36;;;;;;;7.20;3.35;;;1.80;71.30;;;;;;4883388;29;20049;-82
2022/04/02 02:22:04;;;;;;;7.50;3.45;;;1.70;71.30;;;;;;4885341;29;20053;-82
2022/04/02 02:24:32;;;;;;;6.43;3.35;;;1.80;71.30;;;;;;4888673;29;20053;-82
2022/04/02 02:26:59;;;;;;;6.28;3.20;;;1.70;71.30;;;;;;4888654;29;20049;-82
2022/04/02 02:29:26;;;;;;;7.18;3.47;;;1.70;71.40;;;;;;4888450;29;20049;-82
2022/04/02 02:31:53;;;;;;;8.40;3.20;;;1.70;71.40;;;;;;4884768;29;20052;-82
2022/04/02 02:37:05;;;;;;;11.02;3.78;;;1.70;71.40;;;;;;4885107;29;20494;-82
2022/04/02 02:39:32;;;;;;;8.80;3.35;;;1.70;71.40;;;;;;4888501;29;20510;-81
2022/04/02 02:41:59;;;;;;;5.70;3.53;;;1.70;71.40;;;;;;4887882;29;20518;-82
2022/04/02 02:44:25;;;;;;;7.68;3.70;;;1.70;71.40;;;;;;4888395;29;20048;-83
2022/04/02 02:46:52;;;;;;;8.85;3.60;;;1.60;71.40;;;;;;4884356;29;20108;-83
2022/04/02 02:49:19;;;;;;;9.63;3.55;;;1.70;71.50;;;;;;4884674;29;21002;-82
2022/04/02 02:51:46;;;;;;;6.72;3.55;;;1.60;71.50;;;;;;4888030;29;20053;-82
2022/04/02 02:54:13;;;;;;;6.72;3.38;;;1.60;71.50;;;;;;4888139;29;20053;-82
2022/04/02 02:56:40;;;;;;;8.27;3.80;;;1.60;71.50;;;;;;4886673;29;20061;-82
2022/04/02 02:59:07;;;;;;;7.50;3.58;;;1.50;71.50;;;;;;4885954;29;20470;-82
2022/04/02 03:01:34;;;;;;;9.32;3.45;;;1.50;71.60;;;;;;4883785;29;20101;-82
2022/04/02 03:04:01;;;;;;;8.80;3.92;;;1.50;71.60;;;;;;4884519;29;20064;-82
2022/04/02 03:06:28;;;;;;;9.30;3.65;;;1.50;71.60;;;;;;4888023;29;20054;-82
2022/04/02 03:08:55;;;;;;;10.10;3.53;;;1.50;71.70;;;;;;4887929;29;20100;-82
2022/04/02 03:11:22;;;;;;;7.63;3.72;;;1.50;71.70;;;;;;4887259;29;20510;-82
2022/04/02 03:13:49;;;;;;;8.00;3.78;;;1.50;71.70;;;;;;4883374;29;20061;-81
2022/04/02 03:16:16;;;;;;;6.78;3.03;;;1.50;71.80;;;;;;4884631;29;20057;-83
2022/04/02 03:18:43;;;;;;;7.63;3.28;;;1.50;71.80;;;;;;4887819;29;20144;-82
2022/04/02 03:21:10;;;;;;;8.63;3.33;;;1.50;71.90;;;;;;4887599;29;20105;-83
2022/04/02 03:23:37;;;;;;;6.90;3.28;;;1.50;72.00;;;;;;4887568;29;20056;-82
2022/04/02 03:26:04;;;;;;;7.18;3.50;;;1.50;72.00;;;;;;4884997;29;20096;-82
2022/04/02 03:28:31;;;;;;;8.30;3.15;;;1.50;72.10;;;;;;4883251;29;20057;-82
2022/04/02 03:30:58;;;;;;;8.00;3.10;;;1.50;72.20;;;;;;4886530;29;20048;-82
2022/04/02 03:33:25;;;;;;;8.68;2.92;;;1.50;72.20;;;;;;4887524;29;20049;-82
2022/04/02 03:35:51;;;;;;;8.13;3.13;;;1.50;72.30;;;;;;4887411;29;20053;-81
2022/04/02 03:38:18;;;;;;;11.77;3.60;;;1.50;72.40;;;;;;4886810;29;20097;-82
2022/04/02 03:40:46;;;;;;;5.72;2.72;;;1.50;72.40;;;;;;4882611;29;20462;-82
2022/04/02 03:43:12;;;;;;;6.97;3.17;;;1.50;72.50;;;;;;4884464;29;20498;-81
2022/04/02 03:45:40;;;;;;;10.80;3.45;;;1.50;72.60;;;;;;4887258;29;20049;-81
2022/04/02 03:48:07;;;;;;;11.68;2.85;;;1.50;72.60;;;;;;4887272;29;20053;-82
2022/04/02 03:50:34;;;;;;;7.93;2.72;;;1.50;72.70;;;;;;4887324;29;20048;-81
2022/04/02 03:53:01;;;;;;;9.10;2.78;;;1.50;72.70;;;;;;4884208;29;20104;-81
2022/04/02 03:55:28;;;;;;;9.25;2.88;;;1.50;72.80;;;;;;4882737;29;20113;-82
2022/04/02 03:57:55;;;;;;;8.52;2.80;;;1.50;72.90;;;;;;4897362;29;20116;-82
2022/04/02 04:00:22;;;;;;;7.38;2.80;;;1.50;73.00;;;;;;4889800;29;20109;-82
2022/04/02 04:02:49;;;;;;;6.25;2.58;;;1.50;73.00;;;;;;4886977;29;20072;-82
2022/04/02 04:05:17;;;;;;;8.15;2.75;;;1.50;73.10;;;;;;4885326;29;20403;-82
2022/04/02 04:07:44;;;;;;;9.98;2.80;;;1.50;73.10;;;;;;4882455;29;22639;-82
2022/04/02 04:10:11;;;;;;;7.25;2.75;;;1.50;73.20;;;;;;4883765;29;20061;-82
2022/04/02 04:12:44;;;;;;;8.80;2.85;;;1.50;73.30;;;;;;4885663;29;20053;-82
2022/04/02 04:15:11;;;;;;;8.70;2.40;;;1.50;73.30;;;;;;4885551;29;20116;-81
2022/04/02 04:17:40;;;;;;;10.00;2.90;;;1.50;73.40;;;;;;4886755;29;20049;-81
2022/04/02 04:20:09;;;;;;;6.20;2.15;;;1.50;73.50;;;;;;4884729;29;20048;-83
2022/04/02 04:22:36;;;;;;;6.30;2.35;;;1.50;73.50;;;;;;4882177;29;20064;-84
2022/04/02 04:25:04;;;;;;;8.48;2.80;;;1.40;73.60;;;;;;4884518;29;20109;-83
2022/04/02 04:27:31;;;;;;;6.20;2.60;;;1.50;73.70;;;;;;4886604;29;20475;-82
2022/04/02 04:29:58;;;;;;;9.30;2.70;;;1.40;73.70;;;;;;4885413;29;20073;-82
2022/04/02 04:32:25;;;;;;;6.45;2.03;;;1.50;73.80;;;;;;4886523;29;20093;-83
2022/04/02 04:34:52;;;;;;;7.85;2.53;;;1.50;73.90;;;;;;4882428;29;20171;-82
2022/04/02 04:37:19;;;;;;;6.63;2.47;;;1.40;73.90;;;;;;4893730;29;20142;-82
2022/04/02 04:39:45;;;;;;;6.28;2.72;;;1.50;74.00;;;;;;4886050;29;20057;-82
2022/04/02 04:42:12;;;;;;;7.18;2.20;;;1.40;74.10;;;;;;4886241;29;20473;-82
2022/04/02 04:44:40;;;;;;;6.97;2.38;;;1.40;74.10;;;;;;4886300;29;20052;-82
2022/04/02 04:47:07;;;;;;;7.70;2.80;;;1.40;74.20;;;;;;4884219;29;20165;-81
2022/04/02 04:49:34;;;;;;;8.07;2.63;;;1.50;74.20;;;;;;4882041;29;20053;-82
2022/04/02 04:52:03;;;;;;;9.13;2.35;;;1.40;74.30;;;;;;4882828;29;20521;-82
2022/04/02 04:54:30;;;;;;;7.43;2.75;;;1.50;74.40;;;;;;4885844;29;20049;-82
2022/04/02 04:56:57;;;;;;;7.68;2.78;;;1.40;74.40;;;;;;4886157;29;20053;-82
2022/04/02 04:59:24;;;;;;;5.35;2.53;;;1.50;74.50;;;;;;4886346;29;20108;-82
2022/04/02 05:01:51;;;;;;;6.15;2.40;;;1.50;74.50;;;;;;4882159;29;20055;-82
2022/04/02 05:04:18;;;;;;;6.00;2.65;;;1.50;74.60;;;;;;4893233;29;20056;-82
2022/04/02 05:06:46;;;;;;;9.30;2.33;;;1.50;74.70;;;;;;4886237;29;20049;-82
2022/04/02 05:09:13;;;;;;;11.23;2.67;;;1.50;74.70;;;;;;4885692;29;20467;-82
2022/04/02 05:11:39;;;;;;;6.95;2.42;;;1.50;74.80;;;;;;4885778;29;20048;-83
2022/04/02 05:14:08;;;;;;;6.88;2.55;;;1.50;74.80;;;;;;4883968;29;20052;-82
2022/04/02 05:16:35;;;;;;;5.70;2.15;;;1.50;74.90;;;;;;4884618;29;20053;-82
2022/04/02 05:19:02;;;;;;;10.60;3.13;;;1.50;74.90;;;;;;4886438;29;20061;-82
2022/04/02 05:21:29;;;;;;;11.98;2.85;;;1.50;75.00;;;;;;4889496;29;20060;-83
2022/04/02 05:23:56;;;;;;;6.35;2.60;;;1.50;75.00;;;;;;4889709;29;20053;-82
2022/04/02 05:26:23;;;;;;;7.32;2.60;;;1.60;75.10;;;;;;4889853;29;20045;-82
2022/04/02 05:28:52;;;;;;;6.15;2.50;;;1.60;75.10;;;;;;4885583;29;20135;-82
2022/04/02 05:31:19;;;;;;;7.10;2.80;;;1.60;75.20;;;;;;4897036;29;20076;-82
2022/04/02 05:33:46;;;;;;;8.32;2.80;;;1.60;75.20;;;;;;4889662;29;20053;-82
2022/04/02 05:36:14;;;;;;;7.00;3.15;;;1.60;75.20;;;;;;4889338;29;20056;-82
2022/04/02 05:38:41;;;;;;;8.70;3.08;;;1.60;75.20;;;;;;4889625;29;20052;-83
2022/04/02 05:41:09;;;;;;;7.53;2.75;;;1.60;75.30;;;;;;4887469;29;20049;-82
2022/04/02 05:43:36;;;;;;;8.07;2.60;;;1.70;75.30;;;;;;4885085;29;20056;-82
2022/04/02 05:46:03;;;;;;;6.43;2.70;;;1.70;75.30;;;;;;4886042;29;20060;-83
2022/04/02 05:48:31;;;;;;;10.93;3.00;;;1.70;75.40;;;;;;4898004;29;20056;-83
2022/04/02 05:50:59;;;;;;;7.15;3.03;;;1.70;75.40;;;;;;4901312;29;20045;-83
2022/04/02 05:53:27;;;;;;;6.40;2.85;;;1.70;75.40;;;;;;4888984;29;20049;-83
2022/04/02 05:55:54;;;;;;;9.57;3.17;;;1.70;75.50;;;;;;4885106;29;20052;-83
2022/04/02 05:58:21;;;;;;;8.48;3.30;;;1.70;75.50;;;;;;4885065;29;20053;-84
2022/04/02 06:00:49;;;;;;;8.85;3.25;;;1.70;75.50;;;;;;4899572;29;20060;-84
2022/04/02 06:03:17;;;;;;;6.32;2.97;;;1.70;75.60;;;;;;4892704;29;20069;-84
2022/04/02 06:05:44;;;;;;;8.02;3.08;;;1.70;75.60;;;;;;4888396;29;20100;-84
2022/04/02 06:08:11;;;;;;;8.50;3.40;;;1.70;75.70;;;;;;4887245;29;20105;-86
2022/04/02 06:10:38;;;;;;;8.93;3.17;;;1.80;75.70;;;;;;4884140;29;20057;-85
2022/04/02 06:13:06;;;;;;;6.43;3.30;;;1.80;75.80;;;;;;4886724;29;20570;-85
2022/04/02 06:15:34;;;;;;;8.05;3.20;;;1.80;75.80;;;;;;4888767;29;20049;-87
2022/04/02 06:18:01;;;;;;;7.93;3.70;;;1.80;75.80;;;;;;4888740;29;20258;-84
2022/04/02 06:20:28;;;;;;;5.47;3.03;;;1.90;76.00;;;;;;4887121;29;20055;-87
2022/04/02 06:22:56;;;;;;;8.00;3.85;;;1.90;76.00;;;;;;4884812;29;20040;-86
2022/04/02 06:25:23;;;;;;;9.70;3.65;;;1.90;76.00;;;;;;4884489;29;20060;-84
2022/04/02 06:27:50;;;;;;;9.10;3.70;;;1.90;76.10;;;;;;4887158;29;20064;-87
2022/04/02 06:30:19;;;;;;;7.63;3.70;;;1.90;76.10;;;;;;4887272;29;20490;-85
2022/04/02 06:32:52;;;;;;;11.82;4.50;;;1.90;76.20;;;;;;4888434;29;20049;-85
2022/04/02 06:35:19;;;;;;;9.05;3.97;;;1.90;76.30;;;;;;4887317;29;20414;-86
2022/04/02 06:37:50;;;;;;;7.93;4.00;;;2.00;76.40;;;;;;4883912;29;20537;-86
2022/04/02 06:40:17;;;;;;;7.57;3.83;;;2.00;76.40;;;;;;4884785;29;20101;-85
2022/04/02 06:42:45;;;;;;;6.78;3.72;;;2.00;76.50;;;;;;4888060;29;20078;-85
2022/04/02 06:45:12;;;;;;;10.68;4.00;;;2.10;76.60;;;;;;4894263;29;20053;-85
2022/04/02 06:47:40;;;;;;;7.63;4.20;;;2.10;76.70;;;;;;4896848;29;20040;-86
2022/04/02 06:50:09;;;;;;;9.88;3.92;;;2.20;76.70;;;;;;4885560;29;20056;-85
2022/04/02 06:52:37;;;;;;;9.93;4.57;;;2.30;76.80;;;;;;4899197;29;20052;-86
2022/04/02 06:55:05;;;;;;;8.40;4.38;;;2.30;76.80;;;;;;4884496;29;20113;-85
2022/04/02 06:57:33;;;;;;;11.98;4.28;;;2.40;76.90;;;;;;4888045;29;20475;-85
2022/04/02 07:00:00;;;;;;;8.73;4.20;;;2.40;76.90;;;;;;4886842;29;20067;-85
2022/04/02 07:02:26;;;;;;;11.18;4.55;;;2.50;76.90;;;;;;4887790;29;20391;-85
2022/04/02 07:04:54;;;;;;;10.30;4.78;;;2.50;76.90;;;;;;4883503;29;20139;-84
2022/04/02 07:07:21;;;;;;;7.45;4.07;;;2.50;76.90;;;;;;4883925;29;20053;-85
2022/04/02 07:09:48;;;;;;;10.48;4.63;;;2.60;76.90;;;;;;4898054;29;20425;-85
2022/04/02 07:12:15;;;;;;;8.20;3.92;;;2.70;76.90;;;;;;4891549;29;20411;-85
2022/04/02 07:14:42;;;;;;;7.60;4.75;;;2.70;76.80;;;;;;4887574;29;20045;-85
2022/04/02 07:17:09;;;;;;;8.40;4.57;;;2.70;76.80;;;;;;4885692;29;20052;-85
2022/04/02 07:19:37;;;;;;;9.15;4.57;;;2.80;76.70;;;;;;4882939;29;20052;-85
2022/04/02 07:22:11;;;;;;;13.95;5.07;;;2.90;76.70;;;;;;4884090;29;20053;-86
2022/04/02 07:24:39;;;;;;;7.53;4.35;;;2.90;76.60;;;;;;4887305;29;20459;-87
2022/04/02 07:27:10;;;;;;;9.07;4.50;;;2.90;76.60;;;;;;4887385;29;20045;-86
2022/04/02 07:29:36;;;;;;;10.52;4.50;;;2.90;76.50;;;;;;4887473;29;20509;-86
2022/04/02 07:32:07;;;;;;;7.78;4.18;;;3.00;76.40;;;;;;4883419;29;20466;-86
2022/04/02 07:34:34;;;;;;;8.93;4.82;;;3.00;76.40;;;;;;4882564;29;20052;-86
2022/04/02 07:37:34;;;;;;;10.05;4.20;;;3.10;76.30;;;;;;4885857;29;20125;-87
2022/04/02 07:40:24;;;;;;;8.05;4.70;;;3.20;76.30;;;;;;4897162;29;20063;-86
2022/04/02 07:43:22;;;;;;;7.50;4.20;;;3.20;76.30;;;;;;4897741;29;20059;-87
2022/04/02 07:46:10;;;;;;;7.53;4.13;;;3.30;76.20;;;;;;4897842;29;20048;-86
2022/04/02 07:48:39;;;;;;;9.02;4.40;;;3.40;76.10;;;;;;4888016;29;20417;-86
2022/04/02 07:51:15;;;;;;;10.13;4.30;;;3.40;76.10;;;;;;4887062;29;20128;-86
2022/04/02 07:53:49;;;;;;;11.40;4.97;;;3.50;76.10;;;;;;4886737;29;20045;-87
2022/04/02 07:56:30;;;;;;;7.72;4.65;;;3.60;76.00;;;;;;4886083;29;20407;-87
2022/04/02 07:59:03;;;;;;;6.85;4.13;;;3.60;76.00;;;;;;4882285;29;20058;-85
2022/04/02 08:01:30;;;;;;;7.43;3.60;;;3.70;75.90;;;;;;4882391;29;20052;-87
2022/04/02 08:04:01;;;;;;;11.10;4.43;;;3.80;75.70;;;;;;4885898;29;20423;-87
2022/04/02 08:06:31;;;;;;;7.93;3.83;;;3.90;75.60;;;;;;4886992;29;20056;-87
2022/04/02 08:09:02;;;;;;;7.13;4.10;;;4.00;75.30;;;;;;4886833;29;20451;-86
2022/04/02 08:11:31;;;;;;;5.40;3.30;;;4.00;75.10;;;;;;4885620;29;20108;-87
2022/04/02 08:13:59;;;;;;;5.93;3.60;;;4.10;74.90;;;;;;4883376;29;20055;-86
2022/04/02 08:16:27;;;;;;;6.68;3.58;;;4.10;74.60;;;;;;4882240;29;20117;-87
2022/04/02 08:18:57;;;;;;;7.80;3.70;;;4.20;74.40;;;;;;4896863;29;20091;-86
2022/04/02 08:21:23;;;;;;;5.65;3.53;;;4.30;74.20;;;;;;4889640;29;20056;-85
2022/04/02 08:23:50;;;;;;;5.72;3.40;;;4.30;73.90;;;;;;4886468;29;20049;-86
2022/04/02 08:26:36;;;;;;;6.05;3.47;;;4.40;73.70;;;;;;4885745;29;20532;-86
2022/04/02 08:29:15;;;;;;;9.35;3.75;;;4.50;73.40;;;;;;4883732;29;20455;-86
2022/04/02 08:31:51;;;;;;;7.45;3.67;;;4.50;73.10;;;;;;4880563;29;20064;-86
2022/04/02 08:34:37;;;;;;;7.40;3.95;;;4.60;72.70;;;;;;4897690;29;20060;-86
2022/04/02 08:37:41;;;;;;;7.65;3.63;;;4.70;72.40;;;;;;4882896;29;20601;-86
2022/04/02 08:40:39;;;;;;;6.68;4.00;;;4.70;71.90;;;;;;4881962;29;20129;-86
2022/04/02 08:43:21;;;;;;;6.25;3.67;;;4.70;71.60;;;;;;4882879;29;20069;-86
2022/04/02 08:46:15;;;;;;;8.32;3.40;;;4.80;71.30;;;;;;4896575;29;20130;-86
2022/04/02 08:49:05;;;;;;;5.97;3.38;;;4.90;71.00;;;;;;4886910;29;20049;-85
2022/04/02 08:51:45;;;;;;;6.22;3.40;;;4.90;70.60;;;;;;4885955;29;20057;-85
2022/04/02 08:54:27;;;;;;;5.53;3.08;;;5.00;70.20;;;;;;4886469;29;20053;-87
2022/04/02 08:56:59;;;;;;;5.32;3.10;;;5.00;69.80;;;;;;4886156;29;20831;-87
2022/04/02 08:59:37;;;;;;;7.07;3.05;;;5.10;69.40;;;;;;4886094;29;20048;-87
2022/04/02 09:02:56;;;;;;;6.85;3.15;;;5.20;69.10;;;;;;4883793;29;20049;-86
2022/04/02 09:06:01;;;;;;;5.43;3.17;;;5.30;68.70;;;;;;4827469;29;20133;-87
2022/04/02 09:08:43;;;;;;;5.45;2.88;;;5.30;68.30;;;;;;4826562;29;20057;-86
2022/04/02 09:11:26;;;;;;;5.05;2.65;;;5.40;68.00;;;;;;4836293;29;20058;-86
2022/04/02 09:14:00;;;;;;;5.97;2.70;;;5.40;67.50;;;;;;4806515;29;20050;-87
2022/04/02 09:16:42;;;;;;;9.95;3.35;;;5.50;67.30;;;;;;4839277;29;20115;-86
2022/04/02 09:19:27;;;;;;;5.95;2.75;;;5.50;67.00;;;;;;4838685;29;20558;-88
2022/04/02 09:21:54;;;;;;;5.78;2.97;;;5.60;66.40;;;;;;4839256;29;20098;-88
2022/04/02 09:24:47;;;;;;;7.93;3.30;;;5.70;66.10;;;;;;4822545;29;20110;-86
2022/04/02 09:27:47;;;;;;;9.10;3.80;;;5.70;65.60;;;;;;4836503;29;20114;-87
2022/04/02 09:31:06;;;;;;;5.78;3.58;;;5.70;64.90;;;;;;4822362;29;20050;-88
2022/04/02 09:34:04;;;;;;;9.57;3.97;;;5.80;64.40;;;;;;4814976;29;20066;-87
2022/04/02 09:36:37;;;;;;;9.45;4.00;;;5.90;64.00;;;;;;4817924;29;20551;-87
2022/04/02 09:39:23;;;;;;;8.57;4.47;;;5.90;63.70;;;;;;4819021;29;20053;-87
2022/04/02 09:41:58;;;;;;;7.00;3.78;;;5.90;63.40;;;;;;4827382;29;20094;-88
2022/04/02 09:44:47;;;;;;;7.95;3.40;;;6.00;63.10;;;;;;4834146;29;20212;-87
2022/04/02 09:47:39;;;;;;;8.20;3.60;;;6.00;62.60;;;;;;4836070;29;20046;-86
2022/04/02 09:50:11;;;;;;;6.40;3.80;;;6.10;62.20;;;;;;4838686;29;20400;-87
2022/04/02 09:52:47;;;;;;;6.20;3.33;;;6.10;61.70;;;;;;4838593;29;20500;-86
2022/04/02 09:55:20;;;;;;;7.05;3.65;;;6.10;61.50;;;;;;4839249;29;20050;-86
2022/04/02 09:58:20;;;;;;;5.13;2.85;;;6.20;61.20;;;;;;4834262;29;20057;-87
2022/04/02 10:01:05;;;;;;;5.60;3.40;;;6.20;60.90;;;;;;4838459;29;20056;-86
2022/04/02 10:04:09;;;;;;;6.07;3.80;;;6.20;60.70;;;;;;4840730;29;20057;-86
2022/04/02 10:06:40;;;;;;;8.48;4.05;;;6.30;60.50;;;;;;4841909;29;20057;-87
2022/04/02 10:09:20;;;;;;;6.95;3.83;;;6.30;60.30;;;;;;4829839;29;20151;-87
2022/04/02 10:11:58;;;;;;;6.15;3.38;;;6.20;60.00;;;;;;4896279;29;20080;-86
2022/04/02 10:14:28;;;;;;;10.38;4.35;;;6.30;59.90;;;;;;4888940;29;20419;-87
2022/04/02 10:17:06;;;;;;;6.53;3.55;;;6.20;59.80;;;;;;4884311;29;20067;-87
2022/04/02 10:19:41;;;;;;;5.22;3.50;;;6.30;59.70;;;;;;4883604;29;20049;-87
2022/04/02 10:22:10;;;;;;;6.40;3.80;;;6.20;59.70;;;;;;4885442;29;20057;-86
2022/04/02 10:24:39;;;;;;;5.97;3.60;;;6.20;59.60;;;;;;4888659;29;20052;-86
2022/04/02 10:27:10;;;;;;;7.88;3.85;;;6.20;59.60;;;;;;4887154;29;20403;-87
2022/04/02 10:29:57;;;;;;;5.72;3.25;;;6.20;59.60;;;;;;4888519;29;20471;-86
2022/04/02 10:32:24;;;;;;;8.00;3.50;;;6.10;59.60;;;;;;4887500;29;20044;-86
2022/04/02 10:35:13;;;;;;;5.85;3.58;;;6.10;59.60;;;;;;4883948;29;20052;-87
2022/04/02 10:37:52;;;;;;;7.53;3.65;;;6.10;59.60;;;;;;4898120;29;20095;-85
2022/04/02 10:40:24;;;;;;;5.93;3.53;;;6.10;59.60;;;;;;4899729;29;20120;-86
2022/04/02 10:42:57;;;;;;;7.22;3.05;;;6.10;59.60;;;;;;4888144;29;20084;-86
2022/04/02 10:45:28;;;;;;;6.75;3.90;;;6.00;59.60;;;;;;4887194;29;20791;-86
2022/04/02 10:48:11;;;;;;;6.93;3.47;;;6.10;59.60;;;;;;4888386;29;20049;-87
2022/04/02 10:50:41;;;;;;;7.30;3.63;;;6.10;59.60;;;;;;4888266;29;20048;-87
2022/04/02 10:53:13;;;;;;;5.38;3.63;;;6.10;59.60;;;;;;4886101;29;20425;-86
2022/04/02 10:55:47;;;;;;;6.97;3.70;;;6.10;59.60;;;;;;4883474;29;20579;-87
2022/04/02 10:58:14;;;;;;;6.65;3.50;;;6.20;59.60;;;;;;4884247;29;20053;-88
2022/04/02 11:00:46;;;;;;;6.13;3.67;;;6.20;59.60;;;;;;4888218;29;20064;-87
2022/04/02 11:03:28;;;;;;;9.18;3.67;;;6.20;59.60;;;;;;4887938;29;20057;-87
2022/04/02 11:05:55;;;;;;;5.43;3.40;;;6.30;59.60;;;;;;4888111;29;20079;-87
2022/04/02 11:08:28;;;;;;;5.93;3.13;;;6.30;59.50;;;;;;4886440;29;20049;-87
2022/04/02 11:10:57;;;;;;;5.68;3.50;;;6.40;59.50;;;;;;4883832;29;20614;-86
2022/04/02 11:13:29;;;;;;;8.35;3.42;;;6.40;59.50;;;;;;4900917;29;20048;-87
2022/04/02 11:15:59;;;;;;;8.00;3.75;;;6.50;59.50;;;;;;4898147;29;20053;-87
2022/04/02 11:18:26;;;;;;;6.82;3.53;;;6.60;59.40;;;;;;4890606;29;20399;-87
2022/04/02 11:21:04;;;;;;;7.40;3.50;;;6.70;59.30;;;;;;4886742;29;20052;-87
2022/04/02 11:23:55;;;;;;;6.60;3.97;;;6.80;59.10;;;;;;4887818;29;20059;-86
2022/04/02 11:26:27;;;;;;;6.97;4.28;;;6.90;59.00;;;;;;4887469;29;20051;-87
2022/04/02 11:29:02;;;;;;;7.00;3.95;;;6.90;58.60;;;;;;4883789;29;20044;-86
2022/04/02 11:31:29;;;;;;;8.23;4.25;;;7.00;58.20;;;;;;4883446;29;20452;-87
2022/04/02 11:33:58;;;;;;;6.05;3.47;;;7.00;57.80;;;;;;4897847;29;20087;-88
2022/04/02 11:36:58;;;;;;;7.35;3.83;;;7.00;57.70;;;;;;4890556;29;20056;-87
2022/04/02 11:39:34;;;;;;;6.00;3.95;;;7.00;57.60;;;;;;4885951;29;20471;-86
2022/04/02 11:42:03;;;;;;;5.88;3.70;;;7.10;57.60;;;;;;4887438;29;20053;-87
2022/04/02 11:44:37;;;;;;;11.57;3.72;;;7.10;57.60;;;;;;4887315;29;20056;-88
2022/04/02 11:47:08;;;;;;;5.95;3.85;;;7.10;57.50;;;;;;4884581;29;20053;-88
2022/04/02 11:49:39;;;;;;;10.63;4.20;;;7.10;57.40;;;;;;4883013;29;20097;-87
2022/04/02 11:52:13;;;;;;;8.02;4.03;;;7.10;57.20;;;;;;4883898;29;20057;-88
2022/04/02 11:54:50;;;;;;;;;;;7.10;56.90;;;;;;4886161;29;20056;-89
2022/04/02 11:57:19;;;;;;;16.90;8.68;;;7.10;56.70;;;;;;4887236;29;19972;-87
2022/04/02 11:59:54;;;;;;;10.18;6.35;;;7.00;56.40;;;;;;4887145;29;20061;-88
2022/04/02 12:02:35;;;;;;;9.60;5.78;;;7.00;56.20;;;;;;4885414;29;20089;-87
2022/04/02 12:05:05;;;;;;;9.27;5.68;;;7.00;56.10;;;;;;4884083;29;20044;-88
2022/04/02 12:07:46;;;;;;;9.07;5.68;;;6.90;56.20;;;;;;4882511;29;20049;-88
2022/04/02 12:10:42;;;;;;;7.82;5.32;;;6.90;56.20;;;;;;4880132;29;20137;-87
2022/04/02 12:13:10;;;;;;;11.38;5.55;;;6.90;56.30;;;;;;4883487;29;20056;-87
2022/04/02 12:15:39;;;;;;;9.23;5.43;;;6.90;56.30;;;;;;4886794;29;20053;-87
2022/04/02 12:18:08;;;;;;;9.45;5.18;;;6.80;56.10;;;;;;4886873;29;20048;-87
2022/04/02 12:20:37;;;;;;;14.48;5.88;;;6.80;56.10;;;;;;4885608;29;20045;-87
2022/04/02 12:23:12;;;;;;;10.40;6.35;;;6.70;56.10;;;;;;4883809;29;20317;-87
2022/04/02 12:25:45;;;;;;;8.35;5.60;;;6.70;56.20;;;;;;4881434;29;20053;-87
2022/04/02 12:28:16;;;;;;;9.82;5.32;;;6.70;56.20;;;;;;4883142;29;20053;-88
2022/04/02 12:30:48;;;;;;;8.57;5.22;;;6.60;56.20;;;;;;4885535;29;20057;-88
2022/04/02 12:33:25;;;;;;;9.65;4.97;;;6.70;56.30;;;;;;4886462;29;20053;-88
2022/04/02 12:35:57;;;;;;;9.25;4.88;;;6.70;56.50;;;;;;4885322;29;20407;-87
2022/04/02 12:38:30;;;;;;;7.65;4.70;;;6.70;56.60;;;;;;4884914;29;20048;-88
2022/04/02 12:40:58;;;;;;;9.30;4.22;;;6.70;56.70;;;;;;4882815;29;20049;-87
2022/04/02 12:43:30;;;;;;;8.25;4.60;;;6.80;56.80;;;;;;4882316;29;20459;-88
2022/04/02 12:45:59;;;;;;;8.63;4.50;;;6.90;56.80;;;;;;4896718;29;20056;-88
2022/04/02 12:48:40;;;;;;;8.77;4.47;;;6.90;56.80;;;;;;4901344;29;20049;-89
2022/04/02 12:51:15;;;;;;;8.35;4.45;;;6.90;56.70;;;;;;4889936;29;20060;-89
2022/04/02 12:53:44;;;;;;;8.13;4.30;;;7.00;56.60;;;;;;4886229;29;20074;-87
2022/04/02 12:56:19;;;;;;;6.78;4.63;;;7.00;56.50;;;;;;4884560;29;20057;-87
2022/04/02 12:58:48;;;;;;;8.95;4.70;;;7.00;56.30;;;;;;4881809;29;20470;-87
2022/04/02 13:01:29;;;;;;;6.93;4.22;;;7.10;56.20;;;;;;4882200;29;20122;-88
2022/04/02 13:04:07;;;;;;;7.35;3.85;;;7.10;56.10;;;;;;4896498;29;20056;-86
2022/04/02 13:06:36;;;;;;;10.20;4.43;;;7.20;56.10;;;;;;4887593;29;20057;-87
2022/04/02 13:09:05;;;;;;;6.38;4.35;;;7.20;56.10;;;;;;4886265;29;20045;-86
2022/04/02 13:11:58;;;;;;;6.10;3.47;;;7.20;56.10;;;;;;4885882;29;20565;-87
2022/04/02 13:14:38;;;;;;;5.90;3.50;;;7.20;56.10;;;;;;4886176;29;20517;-87
2022/04/02 13:17:11;;;;;;;6.47;3.60;;;7.30;55.90;;;;;;4882552;29;20135;-87
2022/04/02 13:23:04;;;;;;;6.72;3.60;;;7.40;55.60;;;;;;4895711;29;20068;-87
2022/04/02 13:25:37;;;;;;;5.78;3.92;;;7.40;55.50;;;;;;4894312;29;20064;-87